sensor_id;sensor_type;location;lat;lon;timestamp;P1;durP1;ratioP1;P2;durP2;ratioP2
67146;SDS011;54061;52.036;5.558;2022-09-25T00:00:50;7.43;;;1.77;;
67146;SDS011;54061;52.036;5.558;2022-09-25T00:03:18;4.80;;;1.90;;
67146;SDS011;54061;52.036;5.558;2022-09-25T00:05:45;8.70;;;1.88;;
67146;SDS011;54061;52.036;5.558;2022-09-25T00:08:12;7.65;;;2.28;;
67146;SDS011;54061;52.036;5.558;2022-09-25T00:10:49;5.53;;;2.10;;
67146;SDS011;54061;52.036;5.558;2022-09-25T00:13:19;7.30;;;1.95;;
67146;SDS011;54061;52.036;5.558;2022-09-25T00:15:53;6.80;;;2.03;;
67146;SDS011;54061;52.036;5.558;2022-09-25T00:18:20;10.35;;;2.40;;
67146;SDS011;54061;52.036;5.558;2022-09-25T00:21:07;6.45;;;1.63;;
67146;SDS011;54061;52.036;5.558;2022-09-25T00:23:36;4.60;;;1.98;;
67146;SDS011;54061;52.036;5.558;2022-09-25T00:26:03;4.80;;;2.00;;
67146;SDS011;54061;52.036;5.558;2022-09-25T00:28:33;4.05;;;2.05;;
67146;SDS011;54061;52.036;5.558;2022-09-25T00:31:03;3.20;;;1.85;;
67146;SDS011;54061;52.036;5.558;2022-09-25T00:33:30;4.47;;;1.80;;
67146;SDS011;54061;52.036;5.558;2022-09-25T00:36:04;4.03;;;1.92;;
67146;SDS011;54061;52.036;5.558;2022-09-25T00:38:31;5.15;;;2.00;;
67146;SDS011;54061;52.036;5.558;2022-09-25T00:40:58;3.28;;;1.73;;
67146;SDS011;54061;52.036;5.558;2022-09-25T00:43:35;3.67;;;1.60;;
67146;SDS011;54061;52.036;5.558;2022-09-25T00:46:01;4.65;;;1.77;;
67146;SDS011;54061;52.036;5.558;2022-09-25T00:48:36;5.10;;;1.80;;
67146;SDS011;54061;52.036;5.558;2022-09-25T00:51:03;7.18;;;1.75;;
67146;SDS011;54061;52.036;5.558;2022-09-25T00:53:30;3.53;;;1.35;;
67146;SDS011;54061;52.036;5.558;2022-09-25T00:56:01;4.43;;;2.15;;
67146;SDS011;54061;52.036;5.558;2022-09-25T00:58:28;9.70;;;1.77;;
67146;SDS011;54061;52.036;5.558;2022-09-25T01:00:57;4.07;;;1.63;;
67146;SDS011;54061;52.036;5.558;2022-09-25T01:03:23;8.05;;;2.03;;
67146;SDS011;54061;52.036;5.558;2022-09-25T01:05:50;7.78;;;1.67;;
67146;SDS011;54061;52.036;5.558;2022-09-25T01:08:20;6.80;;;2.00;;
67146;SDS011;54061;52.036;5.558;2022-09-25T01:10:48;6.32;;;2.17;;
67146;SDS011;54061;52.036;5.558;2022-09-25T01:13:14;6.85;;;1.85;;
67146;SDS011;54061;52.036;5.558;2022-09-25T01:15:46;3.28;;;1.90;;
67146;SDS011;54061;52.036;5.558;2022-09-25T01:24:03;5.20;;;1.80;;
67146;SDS011;54061;52.036;5.558;2022-09-25T01:35:15;3.90;;;1.67;;
67146;SDS011;54061;52.036;5.558;2022-09-25T01:41:29;6.35;;;1.90;;
67146;SDS011;54061;52.036;5.558;2022-09-25T01:43:37;3.38;;;2.05;;
67146;SDS011;54061;52.036;5.558;2022-09-25T01:46:18;5.22;;;1.70;;
67146;SDS011;54061;52.036;5.558;2022-09-25T01:48:50;8.75;;;1.92;;
67146;SDS011;54061;52.036;5.558;2022-09-25T01:51:23;4.80;;;1.70;;
67146;SDS011;54061;52.036;5.558;2022-09-25T01:53:55;12.25;;;1.90;;
67146;SDS011;54061;52.036;5.558;2022-09-25T01:56:25;7.28;;;2.40;;
67146;SDS011;54061;52.036;5.558;2022-09-25T02:01:51;5.07;;;1.90;;
67146;SDS011;54061;52.036;5.558;2022-09-25T02:04:22;6.07;;;2.22;;
67146;SDS011;54061;52.036;5.558;2022-09-25T02:09:24;5.38;;;1.73;;
67146;SDS011;54061;52.036;5.558;2022-09-25T02:12:03;3.92;;;1.85;;
67146;SDS011;54061;52.036;5.558;2022-09-25T02:14:37;3.40;;;1.70;;
67146;SDS011;54061;52.036;5.558;2022-09-25T02:17:11;4.28;;;1.80;;
67146;SDS011;54061;52.036;5.558;2022-09-25T02:20:02;5.88;;;2.08;;
67146;SDS011;54061;52.036;5.558;2022-09-25T02:22:47;2.35;;;1.60;;
67146;SDS011;54061;52.036;5.558;2022-09-25T02:25:19;3.60;;;2.15;;
67146;SDS011;54061;52.036;5.558;2022-09-25T02:27:51;5.95;;;2.25;;
67146;SDS011;54061;52.036;5.558;2022-09-25T02:30:17;3.92;;;2.20;;
67146;SDS011;54061;52.036;5.558;2022-09-25T02:32:43;6.60;;;2.20;;
67146;SDS011;54061;52.036;5.558;2022-09-25T02:35:09;4.78;;;2.05;;
67146;SDS011;54061;52.036;5.558;2022-09-25T02:37:34;3.00;;;1.85;;
67146;SDS011;54061;52.036;5.558;2022-09-25T02:40:01;4.07;;;2.35;;
67146;SDS011;54061;52.036;5.558;2022-09-25T02:42:40;2.88;;;1.80;;
67146;SDS011;54061;52.036;5.558;2022-09-25T02:48:09;3.55;;;2.13;;
67146;SDS011;54061;52.036;5.558;2022-09-25T02:50:59;5.13;;;2.00;;
67146;SDS011;54061;52.036;5.558;2022-09-25T02:53:40;2.50;;;1.70;;
67146;SDS011;54061;52.036;5.558;2022-09-25T02:56:13;2.83;;;1.75;;
67146;SDS011;54061;52.036;5.558;2022-09-25T02:58:45;2.97;;;1.58;;
67146;SDS011;54061;52.036;5.558;2022-09-25T03:01:17;5.82;;;1.95;;
67146;SDS011;54061;52.036;5.558;2022-09-25T03:03:48;4.10;;;2.47;;
67146;SDS011;54061;52.036;5.558;2022-09-25T03:06:16;3.80;;;2.22;;
67146;SDS011;54061;52.036;5.558;2022-09-25T03:08:43;6.45;;;2.20;;
67146;SDS011;54061;52.036;5.558;2022-09-25T03:11:14;6.10;;;2.42;;
67146;SDS011;54061;52.036;5.558;2022-09-25T03:13:42;4.50;;;2.58;;
67146;SDS011;54061;52.036;5.558;2022-09-25T03:18:40;3.77;;;2.53;;
67146;SDS011;54061;52.036;5.558;2022-09-25T03:21:05;7.38;;;2.35;;
67146;SDS011;54061;52.036;5.558;2022-09-25T03:23:31;5.90;;;3.38;;
67146;SDS011;54061;52.036;5.558;2022-09-25T03:25:57;9.93;;;2.88;;
67146;SDS011;54061;52.036;5.558;2022-09-25T03:28:23;4.07;;;2.50;;
67146;SDS011;54061;52.036;5.558;2022-09-25T03:30:59;3.72;;;2.30;;
67146;SDS011;54061;52.036;5.558;2022-09-25T03:33:32;3.05;;;2.20;;
67146;SDS011;54061;52.036;5.558;2022-09-25T03:36:03;4.15;;;2.42;;
67146;SDS011;54061;52.036;5.558;2022-09-25T03:38:31;5.07;;;2.35;;
67146;SDS011;54061;52.036;5.558;2022-09-25T03:40:57;7.18;;;2.63;;
67146;SDS011;54061;52.036;5.558;2022-09-25T03:43:22;2.90;;;1.70;;
67146;SDS011;54061;52.036;5.558;2022-09-25T03:45:48;3.95;;;1.88;;
67146;SDS011;54061;52.036;5.558;2022-09-25T03:48:14;4.05;;;2.25;;
67146;SDS011;54061;52.036;5.558;2022-09-25T03:50:39;7.25;;;2.30;;
67146;SDS011;54061;52.036;5.558;2022-09-25T03:53:06;3.45;;;1.80;;
67146;SDS011;54061;52.036;5.558;2022-09-25T03:55:31;3.85;;;1.63;;
67146;SDS011;54061;52.036;5.558;2022-09-25T03:57:57;5.07;;;1.73;;
67146;SDS011;54061;52.036;5.558;2022-09-25T04:00:23;5.35;;;1.90;;
67146;SDS011;54061;52.036;5.558;2022-09-25T04:02:49;5.25;;;2.10;;
67146;SDS011;54061;52.036;5.558;2022-09-25T04:05:15;6.85;;;2.28;;
67146;SDS011;54061;52.036;5.558;2022-09-25T04:07:44;7.97;;;1.75;;
67146;SDS011;54061;52.036;5.558;2022-09-25T04:10:09;6.90;;;1.80;;
67146;SDS011;54061;52.036;5.558;2022-09-25T04:12:35;8.18;;;2.05;;
67146;SDS011;54061;52.036;5.558;2022-09-25T04:15:01;6.15;;;1.75;;
67146;SDS011;54061;52.036;5.558;2022-09-25T04:17:26;4.65;;;1.63;;
67146;SDS011;54061;52.036;5.558;2022-09-25T04:19:53;5.70;;;1.85;;
67146;SDS011;54061;52.036;5.558;2022-09-25T04:22:18;2.13;;;1.60;;
67146;SDS011;54061;52.036;5.558;2022-09-25T04:24:44;4.78;;;1.73;;
67146;SDS011;54061;52.036;5.558;2022-09-25T04:27:13;2.03;;;1.60;;
67146;SDS011;54061;52.036;5.558;2022-09-25T04:29:41;4.30;;;1.42;;
67146;SDS011;54061;52.036;5.558;2022-09-25T04:32:06;1.95;;;1.23;;
67146;SDS011;54061;52.036;5.558;2022-09-25T04:34:51;2.67;;;1.38;;
67146;SDS011;54061;52.036;5.558;2022-09-25T04:37:17;6.35;;;1.45;;
67146;SDS011;54061;52.036;5.558;2022-09-25T04:39:42;6.00;;;1.30;;
67146;SDS011;54061;52.036;5.558;2022-09-25T04:42:08;3.42;;;1.20;;
67146;SDS011;54061;52.036;5.558;2022-09-25T04:44:33;1.42;;;1.33;;
67146;SDS011;54061;52.036;5.558;2022-09-25T04:46:59;5.50;;;1.30;;
67146;SDS011;54061;52.036;5.558;2022-09-25T04:49:24;6.35;;;1.85;;
67146;SDS011;54061;52.036;5.558;2022-09-25T04:51:50;2.80;;;1.55;;
67146;SDS011;54061;52.036;5.558;2022-09-25T04:54:15;5.50;;;1.77;;
67146;SDS011;54061;52.036;5.558;2022-09-25T04:56:44;1.45;;;1.30;;
67146;SDS011;54061;52.036;5.558;2022-09-25T04:59:09;2.65;;;1.58;;
67146;SDS011;54061;52.036;5.558;2022-09-25T05:01:35;2.20;;;1.63;;
67146;SDS011;54061;52.036;5.558;2022-09-25T05:04:02;7.35;;;2.00;;
67146;SDS011;54061;52.036;5.558;2022-09-25T05:06:28;4.47;;;1.58;;
67146;SDS011;54061;52.036;5.558;2022-09-25T05:08:53;3.65;;;1.52;;
67146;SDS011;54061;52.036;5.558;2022-09-25T05:11:21;3.58;;;1.80;;
67146;SDS011;54061;52.036;5.558;2022-09-25T05:13:50;5.50;;;1.80;;
67146;SDS011;54061;52.036;5.558;2022-09-25T05:16:16;3.33;;;2.10;;
67146;SDS011;54061;52.036;5.558;2022-09-25T05:18:42;3.88;;;1.98;;
67146;SDS011;54061;52.036;5.558;2022-09-25T05:21:08;5.20;;;2.28;;
67146;SDS011;54061;52.036;5.558;2022-09-25T05:23:33;3.40;;;1.88;;
67146;SDS011;54061;52.036;5.558;2022-09-25T05:25:59;8.40;;;2.13;;
67146;SDS011;54061;52.036;5.558;2022-09-25T05:28:26;3.08;;;1.95;;
67146;SDS011;54061;52.036;5.558;2022-09-25T05:30:57;4.82;;;2.00;;
67146;SDS011;54061;52.036;5.558;2022-09-25T05:33:26;1.60;;;1.50;;
67146;SDS011;54061;52.036;5.558;2022-09-25T05:35:52;3.13;;;1.52;;
67146;SDS011;54061;52.036;5.558;2022-09-25T05:38:17;3.00;;;1.42;;
67146;SDS011;54061;52.036;5.558;2022-09-25T05:40:43;3.13;;;1.38;;
67146;SDS011;54061;52.036;5.558;2022-09-25T05:43:09;5.97;;;1.55;;
67146;SDS011;54061;52.036;5.558;2022-09-25T05:45:36;11.68;;;2.00;;
67146;SDS011;54061;52.036;5.558;2022-09-25T05:48:05;4.53;;;1.58;;
67146;SDS011;54061;52.036;5.558;2022-09-25T05:50:31;4.88;;;1.85;;
67146;SDS011;54061;52.036;5.558;2022-09-25T05:53:03;3.35;;;2.13;;
67146;SDS011;54061;52.036;5.558;2022-09-25T05:55:29;3.65;;;1.85;;
67146;SDS011;54061;52.036;5.558;2022-09-25T05:57:59;3.30;;;2.00;;
67146;SDS011;54061;52.036;5.558;2022-09-25T06:00:25;2.08;;;1.48;;
67146;SDS011;54061;52.036;5.558;2022-09-25T06:02:52;2.72;;;1.20;;
67146;SDS011;54061;52.036;5.558;2022-09-25T06:05:17;2.88;;;1.35;;
67146;SDS011;54061;52.036;5.558;2022-09-25T06:07:43;4.55;;;1.50;;
67146;SDS011;54061;52.036;5.558;2022-09-25T06:10:08;1.40;;;1.17;;
67146;SDS011;54061;52.036;5.558;2022-09-25T06:12:34;2.55;;;1.30;;
67146;SDS011;54061;52.036;5.558;2022-09-25T06:15:00;3.30;;;1.17;;
67146;SDS011;54061;52.036;5.558;2022-09-25T06:17:25;1.73;;;1.10;;
67146;SDS011;54061;52.036;5.558;2022-09-25T06:19:51;2.42;;;1.33;;
67146;SDS011;54061;52.036;5.558;2022-09-25T06:22:16;4.78;;;1.10;;
67146;SDS011;54061;52.036;5.558;2022-09-25T06:24:42;4.38;;;1.30;;
67146;SDS011;54061;52.036;5.558;2022-09-25T06:27:08;2.22;;;1.40;;
67146;SDS011;54061;52.036;5.558;2022-09-25T06:29:34;5.40;;;1.40;;
67146;SDS011;54061;52.036;5.558;2022-09-25T06:32:00;1.60;;;1.15;;
67146;SDS011;54061;52.036;5.558;2022-09-25T06:34:26;6.40;;;1.45;;
67146;SDS011;54061;52.036;5.558;2022-09-25T06:36:52;5.20;;;1.30;;
67146;SDS011;54061;52.036;5.558;2022-09-25T06:39:18;1.80;;;1.20;;
67146;SDS011;54061;52.036;5.558;2022-09-25T06:41:43;2.95;;;1.17;;
67146;SDS011;54061;52.036;5.558;2022-09-25T06:44:09;6.00;;;1.20;;
67146;SDS011;54061;52.036;5.558;2022-09-25T06:46:35;5.10;;;1.60;;
67146;SDS011;54061;52.036;5.558;2022-09-25T06:49:00;4.80;;;1.35;;
67146;SDS011;54061;52.036;5.558;2022-09-25T06:51:26;7.72;;;1.70;;
67146;SDS011;54061;52.036;5.558;2022-09-25T06:53:56;2.63;;;1.48;;
67146;SDS011;54061;52.036;5.558;2022-09-25T06:56:22;3.08;;;1.40;;
67146;SDS011;54061;52.036;5.558;2022-09-25T06:58:48;1.67;;;1.20;;
67146;SDS011;54061;52.036;5.558;2022-09-25T07:01:14;4.25;;;1.67;;
67146;SDS011;54061;52.036;5.558;2022-09-25T07:03:40;6.40;;;1.67;;
67146;SDS011;54061;52.036;5.558;2022-09-25T07:06:09;6.38;;;1.48;;
67146;SDS011;54061;52.036;5.558;2022-09-25T07:08:36;2.55;;;1.48;;
67146;SDS011;54061;52.036;5.558;2022-09-25T07:11:03;2.33;;;1.52;;
67146;SDS011;54061;52.036;5.558;2022-09-25T07:13:30;5.65;;;1.50;;
67146;SDS011;54061;52.036;5.558;2022-09-25T07:16:20;3.38;;;1.65;;
67146;SDS011;54061;52.036;5.558;2022-09-25T07:18:45;4.88;;;1.52;;
67146;SDS011;54061;52.036;5.558;2022-09-25T07:21:12;7.28;;;1.45;;
67146;SDS011;54061;52.036;5.558;2022-09-25T07:23:39;13.27;;;1.60;;
67146;SDS011;54061;52.036;5.558;2022-09-25T07:26:07;5.22;;;1.40;;
67146;SDS011;54061;52.036;5.558;2022-09-25T07:28:35;7.13;;;1.85;;
67146;SDS011;54061;52.036;5.558;2022-09-25T07:31:14;2.90;;;1.30;;
67146;SDS011;54061;52.036;5.558;2022-09-25T07:33:41;7.25;;;2.00;;
67146;SDS011;54061;52.036;5.558;2022-09-25T07:36:07;4.85;;;1.85;;
67146;SDS011;54061;52.036;5.558;2022-09-25T07:38:33;6.57;;;1.50;;
67146;SDS011;54061;52.036;5.558;2022-09-25T07:41:01;6.43;;;1.42;;
67146;SDS011;54061;52.036;5.558;2022-09-25T07:43:27;5.07;;;1.90;;
67146;SDS011;54061;52.036;5.558;2022-09-25T07:45:53;12.57;;;1.60;;
67146;SDS011;54061;52.036;5.558;2022-09-25T07:48:19;8.70;;;1.77;;
67146;SDS011;54061;52.036;5.558;2022-09-25T07:50:48;7.25;;;1.50;;
67146;SDS011;54061;52.036;5.558;2022-09-25T07:53:14;5.72;;;1.48;;
67146;SDS011;54061;52.036;5.558;2022-09-25T07:55:41;6.82;;;1.67;;
67146;SDS011;54061;52.036;5.558;2022-09-25T07:58:06;5.03;;;1.88;;
67146;SDS011;54061;52.036;5.558;2022-09-25T08:00:32;10.27;;;1.58;;
67146;SDS011;54061;52.036;5.558;2022-09-25T08:02:58;7.90;;;1.40;;
67146;SDS011;54061;52.036;5.558;2022-09-25T08:05:24;16.40;;;2.00;;
67146;SDS011;54061;52.036;5.558;2022-09-25T08:07:51;6.20;;;1.50;;
67146;SDS011;54061;52.036;5.558;2022-09-25T08:10:17;3.47;;;1.33;;
67146;SDS011;54061;52.036;5.558;2022-09-25T08:12:42;9.95;;;1.42;;
67146;SDS011;54061;52.036;5.558;2022-09-25T08:15:08;8.45;;;1.50;;
67146;SDS011;54061;52.036;5.558;2022-09-25T08:17:34;6.53;;;1.70;;
67146;SDS011;54061;52.036;5.558;2022-09-25T08:20:00;8.75;;;1.63;;
67146;SDS011;54061;52.036;5.558;2022-09-25T08:22:26;6.35;;;1.30;;
67146;SDS011;54061;52.036;5.558;2022-09-25T08:24:51;4.85;;;1.35;;
67146;SDS011;54061;52.036;5.558;2022-09-25T08:27:17;3.75;;;1.08;;
67146;SDS011;54061;52.036;5.558;2022-09-25T08:29:43;6.50;;;1.38;;
67146;SDS011;54061;52.036;5.558;2022-09-25T08:32:08;5.63;;;0.98;;
67146;SDS011;54061;52.036;5.558;2022-09-25T08:34:34;6.63;;;1.45;;
67146;SDS011;54061;52.036;5.558;2022-09-25T08:37:00;6.53;;;1.58;;
67146;SDS011;54061;52.036;5.558;2022-09-25T08:39:25;6.53;;;1.08;;
67146;SDS011;54061;52.036;5.558;2022-09-25T08:41:52;9.13;;;1.55;;
67146;SDS011;54061;52.036;5.558;2022-09-25T08:47:05;5.22;;;0.95;;
67146;SDS011;54061;52.036;5.558;2022-09-25T08:50:18;5.28;;;0.90;;
67146;SDS011;54061;52.036;5.558;2022-09-25T08:52:49;7.75;;;0.90;;
67146;SDS011;54061;52.036;5.558;2022-09-25T08:55:26;6.80;;;0.93;;
67146;SDS011;54061;52.036;5.558;2022-09-25T08:58:17;8.25;;;1.00;;
67146;SDS011;54061;52.036;5.558;2022-09-25T09:01:05;6.97;;;1.30;;
67146;SDS011;54061;52.036;5.558;2022-09-25T09:03:32;8.02;;;1.20;;
67146;SDS011;54061;52.036;5.558;2022-09-25T09:06:09;4.70;;;1.40;;
67146;SDS011;54061;52.036;5.558;2022-09-25T09:08:38;4.70;;;1.58;;
67146;SDS011;54061;52.036;5.558;2022-09-25T09:11:27;8.48;;;1.35;;
67146;SDS011;54061;52.036;5.558;2022-09-25T09:14:05;6.22;;;1.65;;
67146;SDS011;54061;52.036;5.558;2022-09-25T09:16:44;4.88;;;1.75;;
67146;SDS011;54061;52.036;5.558;2022-09-25T09:19:16;4.38;;;2.05;;
67146;SDS011;54061;52.036;5.558;2022-09-25T09:27:38;4.57;;;1.10;;
67146;SDS011;54061;52.036;5.558;2022-09-25T09:33:09;4.97;;;1.25;;
67146;SDS011;54061;52.036;5.558;2022-09-25T09:38:25;5.67;;;1.23;;
67146;SDS011;54061;52.036;5.558;2022-09-25T09:54:45;6.90;;;1.00;;
67146;SDS011;54061;52.036;5.558;2022-09-25T09:57:27;1.75;;;0.57;;
67146;SDS011;54061;52.036;5.558;2022-09-25T10:00:03;2.70;;;0.60;;
67146;SDS011;54061;52.036;5.558;2022-09-25T10:02:42;1.95;;;0.40;;
67146;SDS011;54061;52.036;5.558;2022-09-25T10:08:15;1.88;;;0.47;;
67146;SDS011;54061;52.036;5.558;2022-09-25T10:10:42;1.63;;;0.40;;
67146;SDS011;54061;52.036;5.558;2022-09-25T10:13:18;3.03;;;0.40;;
67146;SDS011;54061;52.036;5.558;2022-09-25T10:16:03;2.00;;;0.47;;
67146;SDS011;54061;52.036;5.558;2022-09-25T10:21:17;3.33;;;0.55;;
67146;SDS011;54061;52.036;5.558;2022-09-25T10:29:01;1.15;;;0.30;;
67146;SDS011;54061;52.036;5.558;2022-09-25T10:31:45;1.77;;;0.70;;
67146;SDS011;54061;52.036;5.558;2022-09-25T10:36:40;2.42;;;0.60;;
67146;SDS011;54061;52.036;5.558;2022-09-25T10:39:23;3.78;;;0.82;;
67146;SDS011;54061;52.036;5.558;2022-09-25T10:41:55;3.35;;;0.52;;
67146;SDS011;54061;52.036;5.558;2022-09-25T10:44:27;4.90;;;0.90;;
67146;SDS011;54061;52.036;5.558;2022-09-25T10:46:55;5.28;;;1.17;;
67146;SDS011;54061;52.036;5.558;2022-09-25T10:49:59;8.80;;;1.00;;
67146;SDS011;54061;52.036;5.558;2022-09-25T10:52:46;4.65;;;0.93;;
67146;SDS011;54061;52.036;5.558;2022-09-25T10:58:23;6.47;;;1.05;;
67146;SDS011;54061;52.036;5.558;2022-09-25T11:00:54;5.10;;;0.88;;
67146;SDS011;54061;52.036;5.558;2022-09-25T11:03:30;6.32;;;0.90;;
67146;SDS011;54061;52.036;5.558;2022-09-25T11:06:03;5.15;;;0.95;;
67146;SDS011;54061;52.036;5.558;2022-09-25T11:08:34;4.30;;;0.90;;
67146;SDS011;54061;52.036;5.558;2022-09-25T11:11:03;6.20;;;0.90;;
67146;SDS011;54061;52.036;5.558;2022-09-25T11:13:35;6.15;;;0.77;;
67146;SDS011;54061;52.036;5.558;2022-09-25T11:16:09;2.17;;;1.10;;
67146;SDS011;54061;52.036;5.558;2022-09-25T11:18:37;3.67;;;0.90;;
67146;SDS011;54061;52.036;5.558;2022-09-25T11:21:03;5.28;;;0.68;;
67146;SDS011;54061;52.036;5.558;2022-09-25T11:23:33;2.90;;;0.65;;
67146;SDS011;54061;52.036;5.558;2022-09-25T11:26:07;3.65;;;1.00;;
67146;SDS011;54061;52.036;5.558;2022-09-25T11:28:51;8.55;;;1.10;;
67146;SDS011;54061;52.036;5.558;2022-09-25T11:31:43;11.55;;;1.50;;
67146;SDS011;54061;52.036;5.558;2022-09-25T11:36:47;2.90;;;0.85;;
67146;SDS011;54061;52.036;5.558;2022-09-25T11:42:10;6.25;;;0.98;;
67146;SDS011;54061;52.036;5.558;2022-09-25T11:44:44;6.72;;;1.00;;
67146;SDS011;54061;52.036;5.558;2022-09-25T11:47:31;7.75;;;0.95;;
67146;SDS011;54061;52.036;5.558;2022-09-25T11:50:10;4.05;;;0.70;;
67146;SDS011;54061;52.036;5.558;2022-09-25T11:56:02;2.42;;;0.77;;
67146;SDS011;54061;52.036;5.558;2022-09-25T12:09:22;2.95;;;0.80;;
67146;SDS011;54061;52.036;5.558;2022-09-25T12:14:53;4.38;;;0.98;;
67146;SDS011;54061;52.036;5.558;2022-09-25T12:17:57;2.80;;;0.57;;
67146;SDS011;54061;52.036;5.558;2022-09-25T12:26:10;4.38;;;0.65;;
67146;SDS011;54061;52.036;5.558;2022-09-25T12:31:37;4.30;;;0.77;;
67146;SDS011;54061;52.036;5.558;2022-09-25T12:37:06;9.20;;;0.80;;
67146;SDS011;54061;52.036;5.558;2022-09-25T12:39:40;4.88;;;0.50;;
67146;SDS011;54061;52.036;5.558;2022-09-25T12:42:22;2.50;;;0.95;;
67146;SDS011;54061;52.036;5.558;2022-09-25T12:44:57;3.80;;;0.60;;
67146;SDS011;54061;52.036;5.558;2022-09-25T12:47:38;1.95;;;0.50;;
67146;SDS011;54061;52.036;5.558;2022-09-25T12:50:33;3.80;;;0.70;;
67146;SDS011;54061;52.036;5.558;2022-09-25T12:53:26;7.00;;;0.70;;
67146;SDS011;54061;52.036;5.558;2022-09-25T12:56:19;4.53;;;0.60;;
67146;SDS011;54061;52.036;5.558;2022-09-25T12:58:56;6.32;;;0.70;;
67146;SDS011;54061;52.036;5.558;2022-09-25T13:01:58;3.38;;;0.73;;
67146;SDS011;54061;52.036;5.558;2022-09-25T13:12:53;6.93;;;0.77;;
67146;SDS011;54061;52.036;5.558;2022-09-25T13:15:27;1.27;;;0.40;;
67146;SDS011;54061;52.036;5.558;2022-09-25T13:17:59;2.83;;;0.57;;
67146;SDS011;54061;52.036;5.558;2022-09-25T13:22:50;2.22;;;0.70;;
67146;SDS011;54061;52.036;5.558;2022-09-25T13:25:20;4.43;;;0.95;;
67146;SDS011;54061;52.036;5.558;2022-09-25T13:27:46;5.25;;;0.70;;
67146;SDS011;54061;52.036;5.558;2022-09-25T13:30:22;3.65;;;1.05;;
67146;SDS011;54061;52.036;5.558;2022-09-25T13:32:52;3.08;;;1.00;;
67146;SDS011;54061;52.036;5.558;2022-09-25T13:35:26;3.45;;;0.93;;
67146;SDS011;54061;52.036;5.558;2022-09-25T13:37:53;3.20;;;0.98;;
67146;SDS011;54061;52.036;5.558;2022-09-25T13:40:32;3.22;;;0.90;;
67146;SDS011;54061;52.036;5.558;2022-09-25T13:43:17;3.90;;;1.10;;
67146;SDS011;54061;52.036;5.558;2022-09-25T13:45:48;4.13;;;1.23;;
67146;SDS011;54061;52.036;5.558;2022-09-25T13:48:47;4.10;;;1.50;;
67146;SDS011;54061;52.036;5.558;2022-09-25T13:56:26;3.22;;;1.33;;
67146;SDS011;54061;52.036;5.558;2022-09-25T14:01:41;2.30;;;0.63;;
67146;SDS011;54061;52.036;5.558;2022-09-25T14:06:41;15.65;;;9.98;;
67146;SDS011;54061;52.036;5.558;2022-09-25T14:09:13;14.90;;;9.13;;
67146;SDS011;54061;52.036;5.558;2022-09-25T14:11:43;6.03;;;2.40;;
67146;SDS011;54061;52.036;5.558;2022-09-25T14:14:41;6.50;;;1.60;;
67146;SDS011;54061;52.036;5.558;2022-09-25T14:17:19;2.15;;;1.10;;
67146;SDS011;54061;52.036;5.558;2022-09-25T14:19:47;2.47;;;0.60;;
67146;SDS011;54061;52.036;5.558;2022-09-25T14:22:33;0.90;;;0.40;;
67146;SDS011;54061;52.036;5.558;2022-09-25T14:27:57;3.38;;;1.90;;
67146;SDS011;54061;52.036;5.558;2022-09-25T14:30:24;5.85;;;1.50;;
67146;SDS011;54061;52.036;5.558;2022-09-25T14:33:07;2.17;;;1.23;;
67146;SDS011;54061;52.036;5.558;2022-09-25T14:47:30;2.17;;;0.55;;
67146;SDS011;54061;52.036;5.558;2022-09-25T14:49:59;3.00;;;1.15;;
67146;SDS011;54061;52.036;5.558;2022-09-25T14:52:26;5.20;;;1.80;;
67146;SDS011;54061;52.036;5.558;2022-09-25T14:54:56;7.72;;;1.58;;
67146;SDS011;54061;52.036;5.558;2022-09-25T14:57:28;4.82;;;3.88;;
67146;SDS011;54061;52.036;5.558;2022-09-25T15:00:03;7.88;;;5.18;;
67146;SDS011;54061;52.036;5.558;2022-09-25T15:02:40;6.60;;;3.22;;
67146;SDS011;54061;52.036;5.558;2022-09-25T15:07:43;1.52;;;1.42;;
67146;SDS011;54061;52.036;5.558;2022-09-25T15:13:15;2.97;;;1.75;;
67146;SDS011;54061;52.036;5.558;2022-09-25T15:15:46;2.70;;;0.88;;
67146;SDS011;54061;52.036;5.558;2022-09-25T15:18:36;4.30;;;0.80;;
67146;SDS011;54061;52.036;5.558;2022-09-25T15:24:16;2.05;;;0.90;;
67146;SDS011;54061;52.036;5.558;2022-09-25T15:26:51;2.55;;;0.75;;
67146;SDS011;54061;52.036;5.558;2022-09-25T15:29:20;3.10;;;0.73;;
67146;SDS011;54061;52.036;5.558;2022-09-25T15:31:47;2.80;;;1.17;;
67146;SDS011;54061;52.036;5.558;2022-09-25T15:34:18;3.60;;;0.90;;
67146;SDS011;54061;52.036;5.558;2022-09-25T15:36:47;3.47;;;0.77;;
67146;SDS011;54061;52.036;5.558;2022-09-25T15:39:16;3.15;;;1.00;;
67146;SDS011;54061;52.036;5.558;2022-09-25T15:41:45;5.83;;;0.90;;
67146;SDS011;54061;52.036;5.558;2022-09-25T15:46:51;5.70;;;0.75;;
67146;SDS011;54061;52.036;5.558;2022-09-25T15:49:20;3.58;;;0.82;;
67146;SDS011;54061;52.036;5.558;2022-09-25T15:51:50;6.65;;;4.85;;
67146;SDS011;54061;52.036;5.558;2022-09-25T15:56:52;6.30;;;1.00;;
67146;SDS011;54061;52.036;5.558;2022-09-25T15:59:24;2.88;;;1.58;;
67146;SDS011;54061;52.036;5.558;2022-09-25T16:02:29;3.33;;;1.25;;
67146;SDS011;54061;52.036;5.558;2022-09-25T16:05:16;2.25;;;0.80;;
67146;SDS011;54061;52.036;5.558;2022-09-25T16:07:45;3.70;;;1.00;;
67146;SDS011;54061;52.036;5.558;2022-09-25T16:17:54;4.30;;;0.88;;
67146;SDS011;54061;52.036;5.558;2022-09-25T16:22:54;3.83;;;0.75;;
67146;SDS011;54061;52.036;5.558;2022-09-25T16:25:31;2.65;;;0.70;;
67146;SDS011;54061;52.036;5.558;2022-09-25T16:28:02;2.15;;;0.68;;
67146;SDS011;54061;52.036;5.558;2022-09-25T16:30:31;2.78;;;1.67;;
67146;SDS011;54061;52.036;5.558;2022-09-25T16:33:00;2.13;;;0.60;;
67146;SDS011;54061;52.036;5.558;2022-09-25T16:35:35;5.63;;;1.48;;
67146;SDS011;54061;52.036;5.558;2022-09-25T16:38:03;4.20;;;1.50;;
67146;SDS011;54061;52.036;5.558;2022-09-25T16:40:29;5.85;;;1.55;;
67146;SDS011;54061;52.036;5.558;2022-09-25T16:43:02;7.03;;;1.45;;
67146;SDS011;54061;52.036;5.558;2022-09-25T16:46:00;2.72;;;1.25;;
67146;SDS011;54061;52.036;5.558;2022-09-25T16:50:58;1.63;;;0.85;;
67146;SDS011;54061;52.036;5.558;2022-09-25T16:53:25;1.77;;;1.00;;
67146;SDS011;54061;52.036;5.558;2022-09-25T16:55:52;2.58;;;1.00;;
67146;SDS011;54061;52.036;5.558;2022-09-25T16:58:18;6.15;;;1.15;;
67146;SDS011;54061;52.036;5.558;2022-09-25T17:00:44;4.70;;;0.90;;
67146;SDS011;54061;52.036;5.558;2022-09-25T17:03:10;7.30;;;1.17;;
67146;SDS011;54061;52.036;5.558;2022-09-25T17:05:37;4.38;;;0.90;;
67146;SDS011;54061;52.036;5.558;2022-09-25T17:08:14;2.92;;;0.98;;
67146;SDS011;54061;52.036;5.558;2022-09-25T17:10:44;1.08;;;0.80;;
67146;SDS011;54061;52.036;5.558;2022-09-25T17:13:15;3.03;;;0.73;;
67146;SDS011;54061;52.036;5.558;2022-09-25T17:15:42;1.65;;;1.00;;
67146;SDS011;54061;52.036;5.558;2022-09-25T17:18:13;2.50;;;0.75;;
67146;SDS011;54061;52.036;5.558;2022-09-25T17:20:43;1.88;;;0.80;;
67146;SDS011;54061;52.036;5.558;2022-09-25T17:23:09;4.40;;;1.20;;
67146;SDS011;54061;52.036;5.558;2022-09-25T17:25:42;0.98;;;0.70;;
67146;SDS011;54061;52.036;5.558;2022-09-25T17:28:09;2.78;;;0.98;;
67146;SDS011;54061;52.036;5.558;2022-09-25T17:30:36;2.20;;;1.00;;
67146;SDS011;54061;52.036;5.558;2022-09-25T17:33:03;5.25;;;1.00;;
67146;SDS011;54061;52.036;5.558;2022-09-25T17:35:34;2.15;;;0.73;;
67146;SDS011;54061;52.036;5.558;2022-09-25T17:38:06;2.53;;;1.13;;
67146;SDS011;54061;52.036;5.558;2022-09-25T17:40:32;4.38;;;2.75;;
67146;SDS011;54061;52.036;5.558;2022-09-25T17:42:58;4.07;;;2.45;;
67146;SDS011;54061;52.036;5.558;2022-09-25T17:47:54;6.13;;;1.90;;
67146;SDS011;54061;52.036;5.558;2022-09-25T17:50:20;2.33;;;1.02;;
67146;SDS011;54061;52.036;5.558;2022-09-25T17:52:46;4.80;;;2.95;;
67146;SDS011;54061;52.036;5.558;2022-09-25T17:55:16;33.70;;;16.83;;
67146;SDS011;54061;52.036;5.558;2022-09-25T17:57:44;43.38;;;22.90;;
67146;SDS011;54061;52.036;5.558;2022-09-25T18:00:10;41.38;;;22.20;;
67146;SDS011;54061;52.036;5.558;2022-09-25T18:02:37;57.95;;;26.58;;